createdAt,value
2023-01-11T06:48:29.942Z,10.30
2023-01-11T06:53:31.981Z,10.20
2023-01-11T06:58:33.948Z,10.20
2023-01-11T07:03:36.423Z,10.10
2023-01-11T07:08:42.141Z,10.10
2023-01-11T07:13:44.130Z,10.00
2023-01-11T07:18:46.783Z,9.90
2023-01-11T07:23:49.085Z,9.80
2023-01-11T07:28:50.964Z,9.80
2023-01-11T07:33:52.816Z,9.70
2023-01-11T07:38:54.647Z,9.70
2023-01-11T07:43:58.811Z,9.60
2023-01-11T07:49:00.794Z,9.60
2023-01-11T07:54:04.019Z,9.50
2023-01-11T07:59:08.033Z,9.50
2023-01-11T08:04:14.343Z,9.40
2023-01-11T08:09:16.293Z,9.40
2023-01-11T08:14:36.816Z,9.40
2023-01-11T08:19:39.143Z,9.30
2023-01-11T08:24:41.320Z,9.30
2023-01-11T08:29:54.780Z,9.20
2023-01-11T08:34:57.248Z,9.20
2023-01-11T08:39:59.206Z,9.10
2023-01-11T08:45:04.435Z,9.00
2023-01-11T08:50:08.348Z,9.00
2023-01-11T08:55:10.831Z,8.90
2023-01-11T09:00:15.995Z,8.90
2023-01-11T09:05:18.448Z,8.90
2023-01-11T09:10:20.586Z,8.90
2023-01-11T09:15:27.667Z,8.80
2023-01-11T09:20:29.745Z,8.80
2023-01-11T09:25:31.722Z,8.80
2023-01-11T09:30:34.309Z,8.80
2023-01-11T09:35:38.559Z,8.80
2023-01-11T09:40:57.240Z,8.70
2023-01-11T09:46:06.714Z,8.80
2023-01-11T09:51:16.030Z,8.80
2023-01-11T09:56:26.887Z,8.80
2023-01-11T10:01:38.020Z,8.90
2023-01-11T10:07:25.492Z,8.90
2023-01-11T10:18:34.072Z,8.90
2023-01-11T10:23:49.665Z,8.90
2023-01-11T10:29:17.327Z,9.00
2023-01-11T10:34:32.481Z,9.00
2023-01-11T10:40:31.577Z,9.10
2023-01-11T10:45:44.855Z,9.10
2023-01-11T10:50:51.917Z,9.20
2023-01-11T10:56:23.892Z,9.20
2023-01-11T11:01:46.299Z,9.20
2023-01-11T11:07:03.539Z,9.30
2023-01-11T11:12:14.648Z,9.30
2023-01-11T11:17:31.052Z,9.40
2023-01-11T11:22:33.156Z,9.40
2023-01-11T11:27:57.152Z,9.50
2023-01-11T11:33:07.717Z,9.50
2023-01-11T11:38:23.781Z,9.60
2023-01-11T11:43:27.256Z,9.60
2023-01-11T11:48:31.552Z,9.70
2023-01-11T11:53:38.064Z,9.80
2023-01-11T11:58:42.192Z,9.90
2023-01-11T12:03:47.003Z,9.90
2023-01-11T12:08:49.109Z,9.90
2023-01-11T12:14:15.631Z,10.00
2023-01-11T12:19:42.961Z,9.90
2023-01-11T12:24:49.567Z,9.90
2023-01-11T12:30:23.498Z,9.90
2023-01-11T12:35:52.546Z,9.90
2023-01-11T12:41:08.551Z,9.90
2023-01-11T12:46:16.512Z,10.00
2023-01-11T12:51:47.829Z,10.10
2023-01-11T12:56:58.822Z,10.10
2023-01-11T13:02:18.895Z,10.30
2023-01-11T13:07:43.626Z,10.30
2023-01-11T13:12:53.843Z,10.40
2023-01-11T13:18:14.893Z,10.40
2023-01-11T13:23:26.600Z,10.40
2023-01-11T13:28:37.132Z,10.50
2023-01-11T13:33:41.955Z,10.50
2023-01-11T13:38:58.540Z,10.50
2023-01-11T13:44:06.329Z,10.50
2023-01-11T13:49:18.460Z,10.50
2023-01-11T13:54:59.811Z,10.50
2023-01-11T14:00:16.938Z,10.50
2023-01-11T14:05:21.431Z,10.50
2023-01-11T14:10:41.591Z,10.50
2023-01-11T14:16:07.313Z,10.50
2023-01-11T14:21:34.800Z,10.50
2023-01-11T14:26:51.759Z,10.50
2023-01-11T14:32:03.622Z,10.50
2023-01-11T14:37:14.621Z,10.40
2023-01-11T14:42:51.855Z,10.40
2023-01-11T14:48:18.592Z,10.30
2023-01-11T14:53:24.894Z,10.20
2023-01-11T14:58:31.364Z,10.20
2023-01-11T15:03:33.184Z,10.10
2023-01-11T15:08:45.920Z,10.10
2023-01-11T15:13:52.934Z,10.10
2023-01-11T15:18:55.134Z,10.10
2023-01-11T15:24:00.626Z,10.10
2023-01-11T15:29:22.872Z,10.10
2023-01-11T15:34:46.247Z,10.00
2023-01-11T15:40:13.115Z,10.00
2023-01-11T15:46:14.356Z,9.90
2023-01-11T15:51:43.300Z,9.90
2023-01-11T15:56:59.512Z,9.80
2023-01-11T16:02:13.576Z,9.80
2023-01-11T16:07:20.875Z,9.80
2023-01-11T16:12:43.928Z,9.70
2023-01-11T16:17:47.563Z,9.60
2023-01-11T16:22:56.191Z,9.60
2023-01-11T16:27:59.416Z,9.60
2023-01-11T16:33:22.343Z,9.60
2023-01-11T16:38:24.340Z,9.50
2023-01-11T16:43:30.675Z,9.60
2023-01-11T16:48:32.715Z,9.50
2023-01-11T16:53:36.382Z,9.40
2023-01-11T16:58:40.338Z,9.40
2023-01-11T17:03:54.403Z,9.40
2023-01-11T17:09:00.288Z,9.40
2023-01-11T17:14:31.405Z,9.40
2023-01-11T17:19:45.575Z,9.40
2023-01-11T17:25:16.180Z,9.50
2023-01-11T17:30:25.252Z,9.40
2023-01-11T17:35:33.700Z,9.40
2023-01-11T17:40:40.005Z,9.40
2023-01-11T17:45:42.634Z,9.40
2023-01-11T17:51:02.142Z,9.30
2023-01-11T17:56:39.678Z,9.30
2023-01-11T18:01:47.817Z,9.30
2023-01-11T18:06:54.054Z,9.30
2023-01-11T18:12:25.719Z,9.30
2023-01-11T18:17:37.172Z,9.20
2023-01-11T18:22:42.943Z,9.20
2023-01-11T18:27:46.590Z,9.20
